createdAt,value
2023-04-16T00:00:55.548Z,98823.34
2023-04-16T00:02:00.854Z,98821.39
2023-04-16T00:03:06.687Z,98831.58
2023-04-16T00:04:12.539Z,98826.63
2023-04-16T00:05:17.846Z,98824.8
2023-04-16T00:06:23.045Z,98829.83
2023-04-16T00:07:28.266Z,98825.61
2023-04-16T00:08:33.485Z,98827.36
2023-04-16T00:09:38.697Z,98830.44
2023-04-16T00:10:43.911Z,98830.36
2023-04-16T00:11:49.110Z,98829.02
2023-04-16T00:12:54.321Z,98828.28
2023-04-16T00:13:59.502Z,98831.17
2023-04-16T00:15:04.709Z,98837.86
2023-04-16T00:16:09.883Z,98838.8
2023-04-16T00:17:15.097Z,98837.05
2023-04-16T00:18:20.322Z,98840.66
2023-04-16T00:19:25.516Z,98837.54
2023-04-16T00:20:30.717Z,98843.94
2023-04-16T00:21:35.910Z,98832.63
2023-04-16T00:22:41.134Z,98838.47
2023-04-16T00:23:46.314Z,98834.05
2023-04-16T00:24:51.535Z,98834.45
2023-04-16T00:25:56.720Z,98834.98
2023-04-16T00:27:01.958Z,98831.98
2023-04-16T00:28:07.558Z,98833.23
2023-04-16T00:29:15.080Z,98830.34
2023-04-16T00:30:20.259Z,98840.01
2023-04-16T00:31:25.604Z,98845.28
2023-04-16T00:32:30.943Z,98843.13
2023-04-16T00:33:36.231Z,98838.78
2023-04-16T00:34:41.440Z,98840.13
2023-04-16T00:35:46.633Z,98842.91
2023-04-16T00:36:51.820Z,98850.22
2023-04-16T00:37:57.012Z,98855.98
2023-04-16T00:39:02.220Z,98853.19
2023-04-16T00:40:07.416Z,98858.34
2023-04-16T00:41:12.658Z,98863.2
2023-04-16T00:42:17.862Z,98867.63
2023-04-16T00:43:23.053Z,98865.36
2023-04-16T00:44:28.260Z,98866.78
2023-04-16T00:45:33.442Z,98866.37
2023-04-16T00:46:38.904Z,98873.47
2023-04-16T00:47:44.447Z,98873.06
2023-04-16T00:48:49.688Z,98875.64
2023-04-16T00:49:54.911Z,98875.45
2023-04-16T00:51:00.133Z,98875.04
2023-04-16T00:52:05.351Z,98874.19
2023-04-16T00:53:10.554Z,98879.95
2023-04-16T00:54:15.734Z,98878.61
2023-04-16T00:55:20.968Z,98885.3
2023-04-16T00:56:26.174Z,98882.22
2023-04-16T00:57:31.405Z,98886.76
2023-04-16T00:58:36.655Z,98885.02
2023-04-16T00:59:41.872Z,98887.8
2023-04-16T01:00:47.122Z,98880.37
2023-04-16T01:01:53.025Z,98888.91
2023-04-16T01:02:58.654Z,98882.22
2023-04-16T01:04:04.397Z,98882.45
2023-04-16T01:05:09.841Z,98881.73
2023-04-16T01:06:15.056Z,98883.67
2023-04-16T01:07:20.242Z,98875.95
2023-04-16T01:08:25.444Z,98882.53
2023-04-16T01:09:30.611Z,98888.09
2023-04-16T01:10:35.775Z,98885.12
2023-04-16T01:11:40.990Z,98884.39
2023-04-16T01:12:46.194Z,98884.2
2023-04-16T01:13:51.436Z,98886.95
2023-04-16T01:14:56.592Z,98882.01
2023-04-16T01:16:01.865Z,98883.88
2023-04-16T01:17:07.147Z,98885.73
2023-04-16T01:18:12.362Z,98880.98
2023-04-16T01:19:17.554Z,98881.91
2023-04-16T01:20:22.751Z,98882.13
2023-04-16T01:21:27.954Z,98878.11
2023-04-16T01:22:33.263Z,98878.31
2023-04-16T01:23:38.460Z,98883.98
2023-04-16T01:24:43.680Z,98877.7
2023-04-16T01:25:48.896Z,98877.78
2023-04-16T01:26:54.109Z,98883.14
2023-04-16T01:27:59.305Z,98880.77
2023-04-16T01:29:04.478Z,98884.06
2023-04-16T01:30:09.729Z,98877.48
2023-04-16T01:31:15.030Z,98886.34
2023-04-16T01:32:20.522Z,98884.78
2023-04-16T01:33:25.760Z,98882.11
2023-04-16T01:34:30.985Z,98883.16
2023-04-16T01:35:36.158Z,98879.84
2023-04-16T01:36:41.323Z,98879.34
2023-04-16T01:37:46.530Z,98884.27
2023-04-16T01:38:51.746Z,98877.08
2023-04-16T01:39:57.012Z,98880.36
2023-04-16T01:41:02.236Z,98880.46
2023-04-16T01:42:07.418Z,98879.23
2023-04-16T01:43:12.620Z,98879.35
2023-04-16T01:44:17.843Z,98880.25
2023-04-16T01:45:23.048Z,98891.48
2023-04-16T01:46:28.340Z,98887.87
2023-04-16T01:47:33.794Z,98886.32
2023-04-16T01:48:39.077Z,98888.59
2023-04-16T01:49:44.308Z,98891.39
2023-04-16T01:50:49.596Z,98890.14
2023-04-16T01:51:54.800Z,98884.98
2023-04-16T01:53:00.170Z,98885.83
2023-04-16T01:54:05.364Z,98886.53
2023-04-16T01:55:10.590Z,98892.3
2023-04-16T01:56:15.765Z,98881.3
2023-04-16T01:57:20.980Z,98877.8
2023-04-16T01:58:26.176Z,98880.16
2023-04-16T01:59:31.371Z,98880.48
2023-04-16T02:00:36.712Z,98881.49
2023-04-16T02:01:41.950Z,98885.09
2023-04-16T02:02:47.484Z,98883.02
2023-04-16T02:03:53.144Z,98882.72
2023-04-16T02:04:58.644Z,98886.63
2023-04-16T02:06:03.898Z,98889.93
2023-04-16T02:07:09.147Z,98894.88
2023-04-16T02:08:14.370Z,98892.8
2023-04-16T02:09:19.599Z,98895.92
2023-04-16T02:10:24.878Z,98895.92
2023-04-16T02:11:30.086Z,98900.95
2023-04-16T02:12:35.266Z,98894.86
2023-04-16T02:13:40.450Z,98886.94
2023-04-16T02:14:45.649Z,98893.52
2023-04-16T02:15:50.872Z,98893.63
2023-04-16T02:16:56.301Z,98892.91
2023-04-16T02:18:01.690Z,98895.92
2023-04-16T02:19:07.132Z,98899.09
2023-04-16T02:20:12.762Z,98898.07
2023-04-16T02:21:17.965Z,98896.81
2023-04-16T02:22:23.161Z,98899.61
2023-04-16T02:23:28.337Z,98893.33
2023-04-16T02:24:33.539Z,98896.41
2023-04-16T02:25:38.759Z,98902.28
2023-04-16T02:26:43.959Z,98903.73
2023-04-16T02:27:49.205Z,98899.8
2023-04-16T02:28:54.366Z,98900.42
2023-04-16T02:29:59.543Z,98900.42
2023-04-16T02:31:04.743Z,98903.3
2023-04-16T02:32:10.265Z,98903.41
2023-04-16T02:33:15.805Z,98913.19
2023-04-16T02:34:21.060Z,98917.51
2023-04-16T02:35:26.326Z,98913.3
2023-04-16T02:36:31.554Z,98911.63
2023-04-16T02:37:36.760Z,98924.94
2023-04-16T02:38:41.946Z,98920.59
2023-04-16T02:39:47.152Z,98925.42
2023-04-16T02:40:52.338Z,98920.79
2023-04-16T02:41:57.650Z,98926.14
2023-04-16T02:43:02.845Z,98928.02
2023-04-16T02:44:08.083Z,98918.73
2023-04-16T02:45:13.281Z,98927.7
2023-04-16T02:46:18.574Z,98931.11
2023-04-16T02:47:23.945Z,98929.75
2023-04-16T02:48:29.207Z,98931.82
2023-04-16T02:49:34.438Z,98931
2023-04-16T02:50:39.631Z,98934.09
2023-04-16T02:51:44.859Z,98937.05
2023-04-16T02:52:50.099Z,98932.53
2023-04-16T02:53:55.306Z,98931.69
2023-04-16T02:55:00.495Z,98930.66
2023-04-16T02:56:05.709Z,98936.23
2023-04-16T02:57:10.915Z,98937.97
2023-04-16T02:58:16.140Z,98941.28
2023-04-16T02:59:21.328Z,98938.48
2023-04-16T03:00:26.545Z,98938.06
2023-04-16T03:01:31.941Z,98944.04
2023-04-16T03:02:37.574Z,98940.74
2023-04-16T03:03:42.999Z,98941.06
2023-04-16T03:04:48.192Z,98947.65
2023-04-16T03:05:53.378Z,98944.56
2023-04-16T03:06:58.588Z,98945.98
2023-04-16T03:08:03.791Z,98945.69
2023-04-16T03:09:09.611Z,98947.95
2023-04-16T03:10:15.281Z,98947.44
2023-04-16T03:11:20.524Z,98949.18
2023-04-16T03:12:25.738Z,98952.67
2023-04-16T03:13:30.927Z,98957.31
2023-04-16T03:14:36.121Z,98952.05
2023-04-16T03:15:41.370Z,98956.8
2023-04-16T03:16:46.684Z,98951.64
2023-04-16T03:17:53.092Z,98953.61
2023-04-16T03:18:58.374Z,98957.92
2023-04-16T03:20:03.611Z,98957.11
2023-04-16T03:21:08.902Z,98959.56
2023-04-16T03:22:14.164Z,98962.24
2023-04-16T03:23:19.382Z,98966.98
2023-04-16T03:24:24.570Z,98963.47
2023-04-16T03:25:29.869Z,98966.66
2023-04-16T03:26:35.192Z,98969.23
2023-04-16T03:27:40.408Z,98971.28
2023-04-16T03:28:45.617Z,98969.94
2023-04-16T03:29:50.810Z,98968.39
2023-04-16T03:30:56.033Z,98972.13
2023-04-16T03:32:01.315Z,98971.2
2023-04-16T03:33:06.546Z,98969.65
2023-04-16T03:34:11.779Z,98977.04
2023-04-16T03:35:16.997Z,98976.63
2023-04-16T03:36:22.210Z,98975.52
2023-04-16T03:37:27.403Z,98976.86
2023-04-16T03:38:32.619Z,98977.16
2023-04-16T03:39:37.818Z,98979.42
2023-04-16T03:40:43.002Z,98976.34
2023-04-16T03:41:48.190Z,98971.59
2023-04-16T03:42:53.383Z,98975.59
2023-04-16T03:43:58.596Z,98983.44
2023-04-16T03:45:03.793Z,98976.86
2023-04-16T03:46:09.171Z,98982.21
2023-04-16T03:47:14.409Z,98988.05
2023-04-16T03:48:19.621Z,98987.56
2023-04-16T03:49:24.858Z,98981.25
2023-04-16T03:50:30.040Z,98982.41
2023-04-16T03:51:35.303Z,98986.28
2023-04-16T03:52:40.493Z,98994.44
2023-04-16T03:53:45.708Z,98991.24
2023-04-16T03:54:50.926Z,98993.52
2023-04-16T03:55:56.144Z,98995.16
2023-04-16T03:57:01.380Z,98994.11
2023-04-16T03:58:06.611Z,98993.3
2023-04-16T03:59:11.985Z,98999.88
2023-04-16T04:00:17.177Z,99002.34
2023-04-16T04:01:22.374Z,99005.75
2023-04-16T04:02:27.849Z,99005.75
2023-04-16T04:03:33.609Z,99008.94
2023-04-16T04:04:39.463Z,99016.56
2023-04-16T04:05:44.920Z,99013.23
2023-04-16T04:06:50.114Z,99021.58
2023-04-16T04:07:55.354Z,99018.09
2023-04-16T04:09:00.560Z,99019.73
2023-04-16T04:10:05.896Z,99026.74
2023-04-16T04:11:11.129Z,99022.73
2023-04-16T04:12:16.355Z,99027.38
2023-04-16T04:13:21.552Z,99023.69
2023-04-16T04:14:26.763Z,99026.47
2023-04-16T04:15:31.974Z,99026.08
2023-04-16T04:16:37.390Z,99024.52
2023-04-16T04:17:42.715Z,99028.67
2023-04-16T04:18:47.991Z,99029.32
2023-04-16T04:20:02.523Z,99031.5
2023-04-16T04:21:07.717Z,99039.63
2023-04-16T04:22:12.924Z,99040.66
2023-04-16T04:23:18.139Z,99043.36
2023-04-16T04:24:23.302Z,99040.91
2023-04-16T04:25:28.530Z,99043.27
2023-04-16T04:26:33.914Z,99047.09
2023-04-16T04:27:39.212Z,99050.51
2023-04-16T04:28:44.409Z,99041.77
2023-04-16T04:29:49.606Z,99042.06
2023-04-16T04:30:54.831Z,99040.22
2023-04-16T04:32:00.136Z,99047.34
2023-04-16T04:33:05.668Z,99046.52
2023-04-16T04:34:10.979Z,99049.52
2023-04-16T04:35:16.189Z,99049.73
2023-04-16T04:36:21.404Z,99048.84
2023-04-16T04:37:26.579Z,99053.25
2023-04-16T04:38:31.780Z,99051.63
2023-04-16T04:39:36.999Z,99045.12
2023-04-16T04:40:42.216Z,99052.23
2023-04-16T04:41:47.392Z,99052.04
2023-04-16T04:42:52.598Z,99051.11
2023-04-16T04:43:57.825Z,99056.58
2023-04-16T04:45:03.009Z,99059.75
2023-04-16T04:46:08.327Z,99058.81
2023-04-16T04:47:13.631Z,99053.58
2023-04-16T04:48:18.847Z,99061.2
2023-04-16T04:49:24.075Z,99059.23
2023-04-16T04:50:29.291Z,99061.06
2023-04-16T04:51:34.953Z,99056.75
2023-04-16T04:52:40.388Z,99064.79
2023-04-16T04:53:45.621Z,99063.64
2023-04-16T04:54:50.827Z,99054.59
2023-04-16T04:56:09.092Z,99056.84
2023-04-16T04:57:17.263Z,99052.5
2023-04-16T04:58:22.466Z,99056.93
2023-04-16T04:59:27.661Z,99059.61
2023-04-16T05:00:32.866Z,99064.67
2023-04-16T05:01:38.277Z,99065.38
2023-04-16T05:02:43.792Z,99062.78
2023-04-16T05:03:49.415Z,99067.12
2023-04-16T05:04:55.040Z,99069.19
2023-04-16T05:06:00.417Z,99070.6
2023-04-16T05:07:05.643Z,99074.95
2023-04-16T05:08:10.836Z,99071.75
2023-04-16T05:09:16.056Z,99078.14
2023-04-16T05:10:21.254Z,99076.37
2023-04-16T05:11:26.484Z,99080.5
2023-04-16T05:12:31.681Z,99075.25
2023-04-16T05:13:36.910Z,99081.02
2023-04-16T05:14:42.101Z,99087.8
2023-04-16T05:15:47.306Z,99080.39
2023-04-16T05:16:52.672Z,99083.78
2023-04-16T05:17:58.100Z,99083.89
2023-04-16T05:19:03.483Z,99089.36
2023-04-16T05:20:08.688Z,99090.58
2023-04-16T05:21:13.884Z,99088.09
2023-04-16T05:22:19.111Z,99092.93
2023-04-16T05:23:24.318Z,99095.2
2023-04-16T05:24:29.520Z,99093.97
2023-04-16T05:25:34.722Z,99099
2023-04-16T05:26:39.901Z,99100.55
2023-04-16T05:27:45.092Z,99101.08
2023-04-16T05:28:50.333Z,99106.76
2023-04-16T05:29:55.582Z,99099.73
2023-04-16T05:31:00.905Z,99109.11
2023-04-16T05:32:06.159Z,99098.7
2023-04-16T05:33:11.372Z,99102.72
2023-04-16T05:34:16.612Z,99100.04
2023-04-16T05:35:21.816Z,99107.23
2023-04-16T05:36:27.009Z,99112.17
2023-04-16T05:37:32.186Z,99110.83
2023-04-16T05:38:37.430Z,99112.5
2023-04-16T05:39:42.623Z,99118.67
2023-04-16T05:40:47.799Z,99116.11
2023-04-16T05:41:53.027Z,99110.75
2023-04-16T05:42:58.300Z,99115.17
2023-04-16T05:44:03.510Z,99111.23
2023-04-16T05:45:08.700Z,99111.77
2023-04-16T05:46:14.025Z,99111.68
2023-04-16T05:47:19.284Z,99102.31
2023-04-16T05:48:24.533Z,99106.11
2023-04-16T05:49:29.708Z,99108.16
2023-04-16T05:50:34.914Z,99109.91
2023-04-16T05:51:40.140Z,99104.36
2023-04-16T05:52:45.321Z,99109.91
2023-04-16T05:53:50.545Z,99109.49
2023-04-16T05:54:55.918Z,99114.44
2023-04-16T05:56:01.151Z,99111.05
2023-04-16T05:57:06.342Z,99107.53
2023-04-16T05:58:11.577Z,99112.88
2023-04-16T05:59:16.780Z,99114.55
2023-04-16T06:00:22.020Z,99111.55
2023-04-16T06:01:27.233Z,99112.8
2023-04-16T06:02:32.662Z,99111.88
2023-04-16T06:03:38.337Z,99113.21
2023-04-16T06:04:43.674Z,99121.24
2023-04-16T06:05:49.023Z,99125.26
2023-04-16T06:06:54.289Z,99121.66
2023-04-16T06:07:59.477Z,99118.97
2023-04-16T06:09:04.655Z,99120.91
2023-04-16T06:10:09.851Z,99119.58
2023-04-16T06:11:15.083Z,99124.93
2023-04-16T06:12:20.258Z,99127.53
2023-04-16T06:13:25.703Z,99124.44
2023-04-16T06:14:30.900Z,99127.31
2023-04-16T06:15:36.102Z,99124.11
2023-04-16T06:16:41.377Z,99127.01
2023-04-16T06:17:46.663Z,99125.86
2023-04-16T06:18:51.972Z,99128.02
2023-04-16T06:19:57.180Z,99125.78
2023-04-16T06:21:02.382Z,99128.45
2023-04-16T06:22:07.611Z,99121.33
2023-04-16T06:23:12.791Z,99131.95
2023-04-16T06:24:17.999Z,99128.87
2023-04-16T06:25:23.184Z,99125.86
2023-04-16T06:26:28.387Z,99128.87
2023-04-16T06:27:33.564Z,99134.22
2023-04-16T06:28:38.727Z,99133.81
2023-04-16T06:29:43.922Z,99143.67
2023-04-16T06:30:49.065Z,99136.98
2023-04-16T06:31:54.515Z,99130.48
2023-04-16T06:32:59.984Z,99133.48
2023-04-16T06:34:05.296Z,99134.08
2023-04-16T06:35:10.501Z,99139.25
2023-04-16T06:36:15.674Z,99132.33
2023-04-16T06:37:20.891Z,99142.11
2023-04-16T06:38:26.171Z,99142.63
2023-04-16T06:39:31.352Z,99139.84
2023-04-16T06:40:36.532Z,99142.74
2023-04-16T06:41:41.722Z,99141.92
2023-04-16T06:42:47.161Z,99142.33
2023-04-16T06:43:52.343Z,99141.84
2023-04-16T06:44:57.539Z,99146.87
2023-04-16T06:46:02.760Z,99145.94
2023-04-16T06:47:08.036Z,99145.23
2023-04-16T06:48:13.379Z,99143.48
2023-04-16T06:49:18.558Z,99148.84
2023-04-16T06:50:23.733Z,99139.36
2023-04-16T06:51:28.945Z,99147.09
2023-04-16T06:52:34.163Z,99139.47
2023-04-16T06:53:39.361Z,99145.64
2023-04-16T06:54:44.670Z,99146.76
2023-04-16T06:55:49.867Z,99143.67
2023-04-16T06:56:55.085Z,99152.33
2023-04-16T06:58:00.300Z,99149.58
2023-04-16T06:59:05.497Z,99149.16
2023-04-16T07:00:10.801Z,99154.41
2023-04-16T07:01:16.087Z,99149.58
2023-04-16T07:02:24.529Z,99148.42
2023-04-16T07:03:30.478Z,99157.08
2023-04-16T07:04:35.982Z,99155.86
2023-04-16T07:05:41.226Z,99150.5
2023-04-16T07:06:46.475Z,99154.52
2023-04-16T07:07:51.692Z,99153.78
2023-04-16T07:08:59.478Z,99159.35
2023-04-16T07:10:04.741Z,99158.2
2023-04-16T07:11:09.962Z,99158.53
2023-04-16T07:12:18.486Z,99155.53
2023-04-16T07:13:26.546Z,99162.33
2023-04-16T07:14:31.781Z,99162.44
2023-04-16T07:15:36.955Z,99150.06
2023-04-16T07:16:42.269Z,99160.5
2023-04-16T07:17:47.633Z,99164.52
2023-04-16T07:18:52.883Z,99161.84
2023-04-16T07:19:58.105Z,99165.86
2023-04-16T07:21:03.359Z,99168.42
2023-04-16T07:22:08.696Z,99175.12
2023-04-16T07:23:13.875Z,99175.64
2023-04-16T07:24:19.071Z,99176.05
2023-04-16T07:25:26.676Z,99176.78
2023-04-16T07:26:31.875Z,99174.41
2023-04-16T07:27:37.163Z,99181.62
2023-04-16T07:28:42.379Z,99167
2023-04-16T07:29:47.529Z,99178.42
2023-04-16T07:30:52.741Z,99178.02
2023-04-16T07:31:58.011Z,99177.49
2023-04-16T07:33:03.323Z,99182.36
2023-04-16T07:34:08.598Z,99174.33
2023-04-16T07:35:13.778Z,99181.31
2023-04-16T07:36:18.958Z,99177.91
2023-04-16T07:37:24.157Z,99174.62
2023-04-16T07:38:29.337Z,99174.33
2023-04-16T07:39:34.516Z,99175.44
2023-04-16T07:40:39.732Z,99178.56
2023-04-16T07:41:44.935Z,99177
2023-04-16T07:42:50.164Z,99174.55
2023-04-16T07:43:55.397Z,99172.77
2023-04-16T07:45:00.615Z,99183.39
2023-04-16T07:46:05.859Z,99182.8
2023-04-16T07:47:11.187Z,99184.55
2023-04-16T07:48:16.390Z,99187.63
2023-04-16T07:49:21.673Z,99184.02
2023-04-16T07:50:26.900Z,99184.02
2023-04-16T07:51:32.103Z,99189.38
2023-04-16T07:52:37.309Z,99189.48
2023-04-16T07:53:42.528Z,99188.04
2023-04-16T07:54:47.721Z,99192.69
2023-04-16T07:55:52.930Z,99193.09
2023-04-16T07:56:58.107Z,99192.39
2023-04-16T07:58:03.293Z,99190.61
2023-04-16T07:59:24.183Z,99198.23
2023-04-16T08:00:30.266Z,99190.83
2023-04-16T08:01:35.465Z,99196.81
2023-04-16T08:02:40.878Z,99194.02
2023-04-16T08:03:46.798Z,99196.48
2023-04-16T08:04:52.727Z,99195.88
2023-04-16T08:05:58.085Z,99192.47
2023-04-16T08:07:03.294Z,99195.39
2023-04-16T08:08:08.496Z,99201.59
2023-04-16T08:09:13.829Z,99196.86
2023-04-16T08:10:19.067Z,99206.45
2023-04-16T08:11:24.269Z,99206.67
2023-04-16T08:12:29.531Z,99211.09
2023-04-16T08:13:35.198Z,99205.53
2023-04-16T08:14:40.882Z,99212.03
2023-04-16T08:15:46.268Z,99208.75
2023-04-16T08:16:51.533Z,99205.03
2023-04-16T08:17:56.778Z,99209.37
2023-04-16T08:19:05.141Z,99206.89
2023-04-16T08:20:14.510Z,99208.45
2023-04-16T08:21:23.256Z,99212.36
2023-04-16T08:22:28.451Z,99209.67
2023-04-16T08:23:33.639Z,99206.06
2023-04-16T08:24:38.824Z,99203.91
2023-04-16T08:25:43.996Z,99209.19
2023-04-16T08:26:49.185Z,99199.81
2023-04-16T08:27:54.450Z,99207.41
2023-04-16T08:28:59.804Z,99195.88
2023-04-16T08:30:04.999Z,99201.15
2023-04-16T08:31:10.313Z,99204.45
2023-04-16T08:32:15.583Z,99196.61
2023-04-16T08:33:20.815Z,99205.8
2023-04-16T08:34:25.974Z,99197.43
2023-04-16T08:35:31.173Z,99203.41
2023-04-16T08:36:36.389Z,99202.19
2023-04-16T08:37:41.544Z,99208.5
2023-04-16T08:38:46.724Z,99205
2023-04-16T08:39:52.032Z,99207.08
2023-04-16T08:40:57.202Z,99208.72
2023-04-16T08:42:02.496Z,99212.03
2023-04-16T08:43:07.703Z,99213.53
2023-04-16T08:44:13.012Z,99212.44
2023-04-16T08:45:18.231Z,99201.91
2023-04-16T08:46:23.580Z,99215.2
2023-04-16T08:47:31.870Z,99215.41
2023-04-16T08:48:37.190Z,99217.2
2023-04-16T08:49:42.452Z,99209.16
2023-04-16T08:50:47.749Z,99215.34
2023-04-16T08:51:52.929Z,99218.02
2023-04-16T08:52:58.578Z,99209.45
2023-04-16T08:54:04.029Z,99208.72
2023-04-16T08:55:09.495Z,99214.21
2023-04-16T08:56:14.802Z,99212.23
2023-04-16T08:57:20.040Z,99209.27
2023-04-16T08:58:25.786Z,99214.31
2023-04-16T08:59:30.952Z,99214.31
2023-04-16T09:00:36.176Z,99218.34
2023-04-16T09:01:49.683Z,99220.83
2023-04-16T09:02:55.667Z,99216.2
2023-04-16T09:04:01.837Z,99215.69
2023-04-16T09:05:07.626Z,99218.66
2023-04-16T09:06:12.848Z,99213.94
2023-04-16T09:07:18.030Z,99218.47
2023-04-16T09:08:23.249Z,99221.28
2023-04-16T09:09:28.467Z,99222.63
2023-04-16T09:10:33.702Z,99213.45
2023-04-16T09:11:38.907Z,99217.56
2023-04-16T09:12:44.134Z,99209.11
2023-04-16T09:13:49.425Z,99220.38
2023-04-16T09:14:54.659Z,99216.63
2023-04-16T09:15:59.956Z,99221.27
2023-04-16T09:17:05.368Z,99212.74
2023-04-16T09:18:10.562Z,99216.36
2023-04-16T09:19:18.000Z,99218.62
2023-04-16T09:20:24.238Z,99211.7
2023-04-16T09:21:29.669Z,99216.75
2023-04-16T09:22:34.891Z,99207.59
2023-04-16T09:23:40.272Z,99213.99
2023-04-16T09:24:45.503Z,99219.36
2023-04-16T09:25:50.703Z,99221.73
2023-04-16T09:26:55.923Z,99216.56
2023-04-16T09:28:01.114Z,99219.24
2023-04-16T09:29:06.306Z,99218.42
2023-04-16T09:30:11.709Z,99219.65
2023-04-16T09:31:17.490Z,99223.06
2023-04-16T09:32:23.150Z,99219.87
2023-04-16T09:33:28.536Z,99220.39
2023-04-16T09:34:33.939Z,99215.03
2023-04-16T09:35:39.206Z,99219.59
2023-04-16T09:36:44.438Z,99218.66
2023-04-16T09:37:49.676Z,99215.58
2023-04-16T09:38:58.201Z,99210.31
2023-04-16T09:40:03.751Z,99219.17
2023-04-16T09:41:09.063Z,99217.42
2023-04-16T09:42:14.549Z,99216.69
2023-04-16T09:43:19.947Z,99217.34
2023-04-16T09:44:25.128Z,99216.49
2023-04-16T09:45:30.384Z,99224.05
2023-04-16T09:46:35.670Z,99219.2
2023-04-16T09:47:41.146Z,99223.31
2023-04-16T09:48:46.569Z,99222.09
2023-04-16T09:49:51.818Z,99221.89
2023-04-16T09:50:57.030Z,99223.53
2023-04-16T09:52:02.267Z,99227.55
2023-04-16T09:53:07.576Z,99222.83
2023-04-16T09:54:12.783Z,99227.77
2023-04-16T09:55:18.015Z,99224.88
2023-04-16T09:56:23.206Z,99227.28
2023-04-16T09:57:28.413Z,99221.91
2023-04-16T09:58:33.663Z,99224.29
2023-04-16T09:59:38.840Z,99223.36
2023-04-16T10:00:45.032Z,99221.2
2023-04-16T10:01:50.713Z,99218.63
2023-04-16T10:02:56.277Z,99219.03
2023-04-16T10:04:01.834Z,99221.22
2023-04-16T10:05:07.287Z,99209.84
2023-04-16T10:06:12.474Z,99220.5
2023-04-16T10:07:18.339Z,99218.64
2023-04-16T10:08:23.558Z,99214.62
2023-04-16T10:09:28.773Z,99219.05
2023-04-16T10:10:34.009Z,99219.45
2023-04-16T10:11:39.229Z,99223.4
2023-04-16T10:12:44.455Z,99214.83
2023-04-16T10:13:49.696Z,99220.08
2023-04-16T10:14:54.919Z,99216.39
2023-04-16T10:16:00.161Z,99214.83
2023-04-16T10:17:05.717Z,99217.2
2023-04-16T10:18:11.200Z,99212.36
2023-04-16T10:19:16.783Z,99212.36
2023-04-16T10:20:22.076Z,99217.2
2023-04-16T10:21:27.254Z,99210.7
2023-04-16T10:22:32.452Z,99211.23
2023-04-16T10:23:37.686Z,99215.67
2023-04-16T10:24:42.901Z,99214.33
2023-04-16T10:25:48.155Z,99218.23
2023-04-16T10:26:53.368Z,99215.47
2023-04-16T10:27:58.583Z,99214.95
2023-04-16T10:29:03.780Z,99220.94
2023-04-16T10:30:08.960Z,99215.28
2023-04-16T10:31:14.296Z,99213.5
2023-04-16T10:32:19.679Z,99212.16
2023-04-16T10:33:24.885Z,99217.44
2023-04-16T10:34:30.086Z,99218.37
2023-04-16T10:35:35.341Z,99214.84
2023-04-16T10:36:40.573Z,99214.95
2023-04-16T10:37:45.787Z,99209.78
2023-04-16T10:38:51.004Z,99215.55
2023-04-16T10:39:56.239Z,99218.04
2023-04-16T10:41:01.468Z,99217.96
2023-04-16T10:42:06.783Z,99221.75
2023-04-16T10:43:11.981Z,99216.39
2023-04-16T10:44:17.151Z,99225.69
2023-04-16T10:45:22.397Z,99220.86
2023-04-16T10:46:27.672Z,99217.02
2023-04-16T10:47:32.951Z,99224.56
2023-04-16T10:48:50.765Z,99224.05
2023-04-16T10:49:56.190Z,99219.91
2023-04-16T10:51:01.465Z,99214.88
2023-04-16T10:52:06.737Z,99225.19
2023-04-16T10:53:11.953Z,99222.31
2023-04-16T10:54:17.144Z,99223.54
2023-04-16T10:55:22.337Z,99218.59
2023-04-16T10:56:27.571Z,99207.23
2023-04-16T10:57:32.792Z,99221.27
2023-04-16T10:58:38.045Z,99222.91
2023-04-16T10:59:43.360Z,99219.41
2023-04-16T11:00:48.672Z,99221.67
2023-04-16T11:01:54.208Z,99217.24
2023-04-16T11:03:00.001Z,99221.89
2023-04-16T11:04:05.942Z,99223.03
2023-04-16T11:05:11.640Z,99222.82
2023-04-16T11:06:16.896Z,99222.63
2023-04-16T11:07:22.154Z,99221.8
2023-04-16T11:08:27.818Z,99227.98
2023-04-16T11:09:45.229Z,99223.23
2023-04-16T11:10:50.489Z,99226.45
2023-04-16T11:11:55.762Z,99221.5
2023-04-16T11:13:01.187Z,99223.14
2023-04-16T11:14:06.378Z,99223.14
2023-04-16T11:15:11.636Z,99231.19
2023-04-16T11:16:17.105Z,99226.44
2023-04-16T11:17:22.552Z,99227.89
2023-04-16T11:18:27.902Z,99232.11
2023-04-16T11:19:33.097Z,99229.83
2023-04-16T11:20:38.294Z,99227.34
2023-04-16T11:21:43.501Z,99226.53
2023-04-16T11:22:48.713Z,99230.13
2023-04-16T11:23:53.927Z,99224.06
2023-04-16T11:24:59.196Z,99229
2023-04-16T11:26:04.472Z,99226.77
2023-04-16T11:27:10.944Z,99228.3
2023-04-16T11:28:16.139Z,99232.61
2023-04-16T11:29:21.328Z,99226.95
2023-04-16T11:30:26.732Z,99233.95
2023-04-16T11:31:32.132Z,99235.22
2023-04-16T11:32:37.520Z,99232.94
2023-04-16T11:33:42.838Z,99227.89
2023-04-16T11:34:48.032Z,99228.92
2023-04-16T11:35:53.216Z,99233.35
2023-04-16T11:36:58.472Z,99228.5
2023-04-16T11:38:03.676Z,99229.31
2023-04-16T11:39:09.076Z,99220.56
2023-04-16T11:40:15.093Z,99229.64
2023-04-16T11:41:20.541Z,99225.09
2023-04-16T11:42:26.100Z,99226.95
2023-04-16T11:43:31.306Z,99231.39
2023-04-16T11:44:36.514Z,99226.95
2023-04-16T11:45:41.868Z,99230.98
2023-04-16T11:46:47.135Z,99227.56
2023-04-16T11:47:52.814Z,99226.33
2023-04-16T11:48:58.204Z,99226.63
2023-04-16T11:50:03.405Z,99232.32
2023-04-16T11:51:08.593Z,99226.84
2023-04-16T11:52:13.808Z,99227.66
2023-04-16T11:53:19.068Z,99232.53
2023-04-16T11:54:24.430Z,99228.7
2023-04-16T11:55:29.740Z,99226.13
2023-04-16T11:56:35.031Z,99229.13
2023-04-16T11:57:40.490Z,99226.98
2023-04-16T11:58:45.697Z,99222.84
2023-04-16T12:00:05.014Z,99223.16
2023-04-16T12:01:13.071Z,99224.69
2023-04-16T12:02:18.653Z,99223.27
2023-04-16T12:03:24.400Z,99225.53
2023-04-16T12:04:30.153Z,99225.83
2023-04-16T12:05:35.521Z,99223.15
2023-04-16T12:06:40.933Z,99225.75
2023-04-16T12:07:46.205Z,99220.59
2023-04-16T12:08:51.415Z,99219.34
2023-04-16T12:09:56.663Z,99219.97
2023-04-16T12:11:01.866Z,99216.03
2023-04-16T12:12:07.128Z,99216.85
2023-04-16T12:13:12.401Z,99208.4
2023-04-16T12:14:17.639Z,99209.13
2023-04-16T12:15:22.880Z,99202.54
2023-04-16T12:16:28.197Z,99208.61
2023-04-16T12:17:34.017Z,99207.79
2023-04-16T12:18:39.452Z,99208.94
2023-04-16T12:19:44.852Z,99202.75
2023-04-16T12:20:50.093Z,99215.97
2023-04-16T12:21:55.489Z,99208
2023-04-16T12:23:00.685Z,99209.67
2023-04-16T12:24:06.065Z,99207.31
2023-04-16T12:25:11.313Z,99201.42
2023-04-16T12:26:16.596Z,99196.26
2023-04-16T12:27:22.194Z,99192.84
2023-04-16T12:28:27.454Z,99199.79
2023-04-16T12:29:32.843Z,99197.2
2023-04-16T12:30:38.110Z,99194.02
2023-04-16T12:31:43.484Z,99195.57
2023-04-16T12:32:48.833Z,99198.14
2023-04-16T12:33:54.169Z,99198.25
2023-04-16T12:34:59.509Z,99192.36
2023-04-16T12:36:04.743Z,99194.72
2023-04-16T12:37:10.042Z,99195.34
2023-04-16T12:38:15.379Z,99190.2
2023-04-16T12:39:20.833Z,99192.36
2023-04-16T12:40:26.077Z,99194.84
2023-04-16T12:41:31.409Z,99195.14
2023-04-16T12:42:36.790Z,99190.83
2023-04-16T12:43:42.029Z,99195.98
2023-04-16T12:44:49.488Z,99199.28
2023-04-16T12:45:54.876Z,99197.33
2023-04-16T12:47:00.177Z,99192.78
2023-04-16T12:48:05.480Z,99196.7
2023-04-16T12:49:11.198Z,99192.26
2023-04-16T12:50:16.632Z,99197.62
2023-04-16T12:51:21.894Z,99198.36